createdAt,value
2018-06-29T00:02:27.169Z,26.93
2018-06-29T00:04:55.685Z,27.07
2018-06-29T00:07:24.175Z,28.00
2018-06-29T00:09:52.730Z,26.90
2018-06-29T00:12:21.209Z,26.13
2018-06-29T00:14:49.750Z,27.43
2018-06-29T00:17:18.183Z,26.80
2018-06-29T00:19:46.754Z,25.97
2018-06-29T00:22:15.313Z,27.93
2018-06-29T00:24:43.954Z,27.43
2018-06-29T00:27:12.496Z,27.13
2018-06-29T00:29:41.224Z,29.10
2018-06-29T00:32:09.848Z,28.73
2018-06-29T00:34:38.342Z,28.47
2018-06-29T00:37:06.852Z,28.87
2018-06-29T00:39:35.391Z,27.43
2018-06-29T00:42:04.034Z,26.43
2018-06-29T00:44:32.494Z,28.23
2018-06-29T00:47:01.030Z,26.10
2018-06-29T00:49:29.593Z,27.17
2018-06-29T00:51:58.070Z,27.87
2018-06-29T00:54:26.582Z,26.17
2018-06-29T00:56:55.086Z,26.67
2018-06-29T00:59:23.559Z,26.97
2018-06-29T01:01:52.073Z,26.20
2018-06-29T01:04:20.605Z,26.77
2018-06-29T01:06:49.094Z,28.57
2018-06-29T01:09:17.617Z,27.67
2018-06-29T01:11:46.140Z,26.97
2018-06-29T01:14:14.582Z,26.43
2018-06-29T01:16:42.682Z,26.57
2018-06-29T01:19:11.100Z,25.67
2018-06-29T01:21:39.534Z,26.07
2018-06-29T01:24:08.027Z,26.93
2018-06-29T01:26:36.458Z,28.27
2018-06-29T01:29:04.928Z,27.30
2018-06-29T01:31:33.356Z,26.70
2018-06-29T01:34:01.773Z,26.07
2018-06-29T01:36:30.231Z,27.63
2018-06-29T01:38:58.655Z,25.97
2018-06-29T01:41:27.121Z,26.80
2018-06-29T01:43:55.512Z,26.33
2018-06-29T01:46:24.032Z,26.70
2018-06-29T01:48:52.406Z,25.67
2018-06-29T01:51:20.822Z,26.37
2018-06-29T01:53:49.300Z,29.47
2018-06-29T01:56:17.846Z,27.90
2018-06-29T01:58:46.295Z,27.97
2018-06-29T02:01:14.774Z,27.43
2018-06-29T02:03:43.200Z,27.07
2018-06-29T02:06:11.670Z,27.33
2018-06-29T02:08:40.156Z,27.50
2018-06-29T02:11:08.580Z,27.93
2018-06-29T02:13:36.993Z,28.57
2018-06-29T02:16:05.464Z,27.07
2018-06-29T02:18:33.902Z,29.23
2018-06-29T02:21:02.372Z,27.77
2018-06-29T02:23:30.834Z,27.97
2018-06-29T02:25:59.220Z,27.27
2018-06-29T02:28:27.592Z,26.53
2018-06-29T02:30:56.003Z,27.17
2018-06-29T02:33:24.615Z,26.93
2018-06-29T02:35:53.154Z,29.60
2018-06-29T02:38:21.556Z,29.87
2018-06-29T02:40:50.032Z,32.27
2018-06-29T02:43:18.490Z,29.97
2018-06-29T02:45:46.961Z,30.03
2018-06-29T02:48:15.420Z,32.37
2018-06-29T02:50:43.878Z,30.73
2018-06-29T02:53:12.409Z,31.33
2018-06-29T02:55:41.078Z,31.70
2018-06-29T02:58:09.542Z,31.07
2018-06-29T03:00:38.019Z,32.03
2018-06-29T03:03:06.573Z,29.57
2018-06-29T03:05:35.123Z,29.57
2018-06-29T03:08:03.885Z,28.67
2018-06-29T03:10:32.355Z,29.60
2018-06-29T03:13:07.249Z,28.00
2018-06-29T03:15:36.172Z,29.00
2018-06-29T03:18:04.751Z,26.87
2018-06-29T03:20:33.210Z,25.67
2018-06-29T03:23:01.639Z,27.20
2018-06-29T03:25:30.343Z,25.37
2018-06-29T03:27:58.771Z,26.10
2018-06-29T03:30:27.246Z,28.10
2018-06-29T03:32:55.840Z,27.50
2018-06-29T03:35:24.274Z,27.77
2018-06-29T03:37:52.721Z,27.07
2018-06-29T03:40:21.238Z,26.97
2018-06-29T03:42:49.617Z,26.90
2018-06-29T03:45:18.135Z,25.57
2018-06-29T03:47:46.616Z,28.17
2018-06-29T03:50:15.030Z,30.20
2018-06-29T03:52:43.558Z,28.07
2018-06-29T03:55:12.061Z,27.23
2018-06-29T03:57:41.384Z,28.17
2018-06-29T04:00:09.849Z,29.63
2018-06-29T04:02:38.426Z,28.87
2018-06-29T04:05:06.842Z,30.33
2018-06-29T04:07:35.286Z,29.07
2018-06-29T04:10:03.843Z,30.70
2018-06-29T04:12:32.413Z,29.40
2018-06-29T04:15:00.858Z,29.67
2018-06-29T04:17:29.272Z,28.93
2018-06-29T04:19:57.728Z,27.93
2018-06-29T04:22:26.151Z,25.93
2018-06-29T04:24:59.050Z,26.97
2018-06-29T04:27:27.485Z,27.10
2018-06-29T04:29:55.886Z,26.60
2018-06-29T04:32:24.464Z,25.87
2018-06-29T04:34:53.114Z,25.20
2018-06-29T04:37:21.570Z,25.57
2018-06-29T04:39:51.221Z,26.30
2018-06-29T04:42:19.699Z,25.03
2018-06-29T04:44:48.171Z,25.07
2018-06-29T04:47:16.603Z,23.70
2018-06-29T04:49:45.044Z,23.53
2018-06-29T04:52:13.504Z,24.23
2018-06-29T04:54:42.068Z,24.10
2018-06-29T04:57:10.499Z,23.63
2018-06-29T04:59:38.965Z,23.67
2018-06-29T05:02:07.545Z,25.67
2018-06-29T05:04:36.019Z,26.93
2018-06-29T05:07:04.470Z,25.87
2018-06-29T05:09:32.990Z,23.17
2018-06-29T05:12:01.502Z,23.27
2018-06-29T05:14:30.292Z,23.63
2018-06-29T05:16:58.824Z,22.40
2018-06-29T05:19:27.319Z,22.27
2018-06-29T05:21:55.813Z,21.00
2018-06-29T05:24:24.272Z,20.90
2018-06-29T05:26:52.745Z,21.63
2018-06-29T05:29:21.174Z,21.87
2018-06-29T05:31:49.681Z,21.13
2018-06-29T05:34:18.137Z,20.13
2018-06-29T05:36:46.626Z,17.93
2018-06-29T05:39:15.100Z,17.53
2018-06-29T05:41:43.686Z,17.30
2018-06-29T05:44:12.040Z,16.17
2018-06-29T05:46:40.575Z,16.67
2018-06-29T05:49:09.672Z,17.37
2018-06-29T05:51:38.393Z,17.03
2018-06-29T05:54:07.309Z,16.10
2018-06-29T05:56:36.321Z,15.97
2018-06-29T05:59:05.161Z,15.70
2018-06-29T06:01:33.747Z,16.60
2018-06-29T06:04:02.218Z,15.77
2018-06-29T06:06:30.703Z,16.00
2018-06-29T06:08:59.153Z,15.90
2018-06-29T06:11:27.798Z,16.60
2018-06-29T06:13:56.233Z,15.07
2018-06-29T06:16:24.646Z,16.40
2018-06-29T06:19:07.229Z,15.90
2018-06-29T06:21:36.318Z,16.17
2018-06-29T06:24:04.845Z,16.03
2018-06-29T06:26:33.279Z,16.50
2018-06-29T06:29:01.732Z,15.97
2018-06-29T06:31:30.215Z,15.67
2018-06-29T06:33:58.697Z,16.70
2018-06-29T06:36:27.174Z,16.10
2018-06-29T06:38:55.641Z,16.90
2018-06-29T06:41:24.075Z,15.80
2018-06-29T06:43:52.574Z,15.77
2018-06-29T06:46:21.193Z,14.53
2018-06-29T06:48:49.703Z,14.83
2018-06-29T06:51:18.128Z,15.60
2018-06-29T06:53:46.753Z,15.30
2018-06-29T06:56:15.425Z,14.73
2018-06-29T06:58:43.948Z,15.30
2018-06-29T07:01:12.449Z,15.57
2018-06-29T07:03:40.888Z,15.73
2018-06-29T07:06:09.454Z,16.67
2018-06-29T07:08:37.933Z,16.73
2018-06-29T07:11:06.413Z,17.00
2018-06-29T07:13:34.974Z,16.80
2018-06-29T07:16:03.494Z,16.27
2018-06-29T07:18:32.001Z,16.20
2018-06-29T07:21:00.708Z,16.30
2018-06-29T07:23:29.240Z,15.80
2018-06-29T07:25:57.940Z,16.50
2018-06-29T07:28:26.560Z,16.47
2018-06-29T07:30:56.383Z,15.20
2018-06-29T07:33:25.120Z,14.93
2018-06-29T07:35:53.704Z,14.73
2018-06-29T07:38:22.227Z,13.87
2018-06-29T07:40:50.880Z,14.07
2018-06-29T07:43:19.516Z,13.33
2018-06-29T07:45:48.069Z,13.47
2018-06-29T07:48:16.523Z,12.63
2018-06-29T07:50:45.014Z,12.80
2018-06-29T07:53:13.555Z,11.10
2018-06-29T07:55:42.006Z,11.70
2018-06-29T07:58:10.564Z,11.97
2018-06-29T08:00:38.995Z,12.07
2018-06-29T08:03:07.515Z,11.20
2018-06-29T08:05:36.286Z,13.47
2018-06-29T08:08:04.476Z,11.97
2018-06-29T08:10:33.316Z,13.47
2018-06-29T08:13:02.158Z,13.43
2018-06-29T08:15:31.041Z,14.47
2018-06-29T08:17:59.527Z,13.37
2018-06-29T08:20:28.094Z,14.23
2018-06-29T08:22:56.805Z,14.10
2018-06-29T08:25:25.416Z,13.77
2018-06-29T08:27:53.913Z,13.77
2018-06-29T08:30:22.402Z,13.73
2018-06-29T08:32:50.951Z,13.73
2018-06-29T08:35:19.517Z,12.93
2018-06-29T08:37:47.960Z,13.43
2018-06-29T08:40:16.406Z,13.43
2018-06-29T08:42:44.817Z,14.20
2018-06-29T08:45:13.300Z,13.67
2018-06-29T08:47:41.775Z,13.20
2018-06-29T08:50:10.306Z,12.70
2018-06-29T08:52:38.754Z,13.67
2018-06-29T08:55:07.294Z,13.07
2018-06-29T08:57:36.114Z,13.53
2018-06-29T09:00:06.108Z,11.87
2018-06-29T09:02:34.688Z,12.93
2018-06-29T09:05:03.250Z,12.80
2018-06-29T09:07:31.754Z,12.57
2018-06-29T09:10:00.225Z,12.20
2018-06-29T09:12:28.694Z,12.40
2018-06-29T09:14:57.458Z,12.77
2018-06-29T09:17:26.036Z,12.17
2018-06-29T09:19:54.549Z,12.63
2018-06-29T09:22:23.447Z,12.43
2018-06-29T09:24:52.098Z,12.20
2018-06-29T09:27:20.602Z,11.13
2018-06-29T09:29:49.232Z,12.00
2018-06-29T09:32:17.752Z,12.73
2018-06-29T09:34:46.350Z,12.97
2018-06-29T09:37:14.877Z,12.93
2018-06-29T09:39:43.495Z,12.73
2018-06-29T09:42:12.112Z,11.97
2018-06-29T09:44:40.680Z,13.10
2018-06-29T09:47:09.223Z,13.60
2018-06-29T09:49:37.707Z,13.67
2018-06-29T09:52:06.549Z,14.07
2018-06-29T09:54:35.077Z,11.93
2018-06-29T09:57:03.620Z,13.07
2018-06-29T09:59:32.105Z,13.00
2018-06-29T10:02:00.705Z,11.93
2018-06-29T10:04:29.225Z,13.00
2018-06-29T10:06:57.690Z,11.53
2018-06-29T10:09:26.192Z,11.87
2018-06-29T10:11:54.720Z,12.90
2018-06-29T10:14:23.222Z,13.10
2018-06-29T10:16:51.842Z,12.13
2018-06-29T10:19:20.349Z,13.40
2018-06-29T10:21:48.948Z,12.50
2018-06-29T10:24:18.005Z,12.10
2018-06-29T10:26:46.616Z,12.70
2018-06-29T10:29:15.316Z,13.17
2018-06-29T10:31:43.820Z,13.60
2018-06-29T10:34:12.319Z,14.40
2018-06-29T10:36:40.903Z,14.73
2018-06-29T10:39:12.415Z,15.60
2018-06-29T10:41:41.548Z,13.90
2018-06-29T10:44:10.059Z,12.13
2018-06-29T10:46:39.180Z,14.63
2018-06-29T10:49:07.812Z,12.10
2018-06-29T10:51:36.807Z,14.27
2018-06-29T10:54:05.410Z,13.87
2018-06-29T10:56:34.170Z,13.87
2018-06-29T10:59:02.822Z,13.47
2018-06-29T11:01:31.393Z,13.40
2018-06-29T11:03:59.843Z,13.77
2018-06-29T11:06:28.430Z,15.30
2018-06-29T11:08:57.958Z,14.17
2018-06-29T11:11:26.445Z,15.03
2018-06-29T11:13:54.937Z,15.23
2018-06-29T11:16:24.069Z,14.73
2018-06-29T11:18:52.561Z,14.43
2018-06-29T11:21:21.737Z,13.20
2018-06-29T11:23:50.469Z,13.87
2018-06-29T11:26:19.044Z,13.27
2018-06-29T11:28:47.587Z,14.37
2018-06-29T11:31:16.105Z,14.90
2018-06-29T11:33:44.596Z,11.53
2018-06-29T11:36:13.114Z,12.70
2018-06-29T11:38:41.627Z,11.40
2018-06-29T11:41:10.106Z,12.67
2018-06-29T11:43:38.721Z,11.97
2018-06-29T11:46:07.242Z,11.60
2018-06-29T11:48:37.168Z,10.60
2018-06-29T11:51:05.697Z,10.90
2018-06-29T11:53:34.362Z,10.23
2018-06-29T11:56:02.894Z,9.93
2018-06-29T11:58:31.441Z,10.53
2018-06-29T12:01:00.140Z,9.47
2018-06-29T12:03:29.514Z,10.50
2018-06-29T12:05:58.020Z,11.73
2018-06-29T12:08:26.498Z,10.57
2018-06-29T12:10:54.986Z,11.03
2018-06-29T12:13:23.540Z,10.23
2018-06-29T12:15:52.052Z,9.97
2018-06-29T12:18:20.586Z,9.77
2018-06-29T12:20:48.718Z,9.10
2018-06-29T12:23:17.235Z,8.97
2018-06-29T12:25:45.710Z,9.57
2018-06-29T12:28:14.298Z,8.93
2018-06-29T12:30:42.955Z,9.20
2018-06-29T12:33:11.426Z,9.00
2018-06-29T12:35:39.965Z,9.00
2018-06-29T12:38:08.585Z,8.50
2018-06-29T12:40:37.169Z,9.47
2018-06-29T12:43:05.975Z,9.70
2018-06-29T12:45:34.527Z,9.67
2018-06-29T12:48:02.982Z,8.97
2018-06-29T12:50:31.587Z,8.40
2018-06-29T12:53:00.072Z,8.50
2018-06-29T12:55:28.745Z,8.30
2018-06-29T12:57:57.279Z,7.90
2018-06-29T13:00:25.678Z,7.77
2018-06-29T13:02:54.178Z,7.63
2018-06-29T13:05:22.803Z,8.60
2018-06-29T13:07:51.256Z,8.13
2018-06-29T13:10:19.816Z,7.57
2018-06-29T13:12:48.317Z,7.30
2018-06-29T13:15:16.852Z,6.40
2018-06-29T13:17:45.375Z,6.57
2018-06-29T13:20:13.914Z,5.90
2018-06-29T13:22:42.451Z,6.10
2018-06-29T13:25:11.027Z,6.30
2018-06-29T13:27:39.515Z,6.13
2018-06-29T13:30:08.199Z,6.17
2018-06-29T13:32:36.789Z,6.27
2018-06-29T13:35:05.386Z,6.87
2018-06-29T13:37:33.889Z,6.50
2018-06-29T13:40:02.432Z,6.63
2018-06-29T13:42:30.927Z,6.30
2018-06-29T13:44:59.611Z,6.77
2018-06-29T13:47:28.093Z,7.17
2018-06-29T13:49:57.487Z,6.87
2018-06-29T13:52:26.032Z,7.10
2018-06-29T13:54:54.678Z,6.40
2018-06-29T13:57:24.131Z,6.80
2018-06-29T13:59:52.748Z,6.50
2018-06-29T14:02:21.439Z,6.70
2018-06-29T14:04:50.410Z,7.17
2018-06-29T14:07:18.959Z,7.30
2018-06-29T14:09:47.530Z,6.80
2018-06-29T14:12:18.873Z,7.37
2018-06-29T14:14:47.391Z,7.20
2018-06-29T14:17:16.008Z,7.90
2018-06-29T14:19:44.545Z,7.40
2018-06-29T14:22:13.136Z,6.93
2018-06-29T14:24:41.671Z,7.13
2018-06-29T14:27:10.309Z,7.00
2018-06-29T14:29:38.850Z,7.23
2018-06-29T14:32:07.403Z,7.60
2018-06-29T14:34:35.943Z,7.30
2018-06-29T14:37:04.363Z,8.27
2018-06-29T14:39:33.197Z,8.43
2018-06-29T14:42:02.060Z,7.90
2018-06-29T14:44:30.674Z,7.50
2018-06-29T14:46:59.451Z,7.40
2018-06-29T14:49:28.015Z,7.50
2018-06-29T14:51:56.508Z,7.80
2018-06-29T14:54:25.066Z,8.07
2018-06-29T14:56:54.495Z,8.00
2018-06-29T14:59:23.088Z,7.13
2018-06-29T15:01:51.548Z,7.47
2018-06-29T15:04:20.043Z,7.33
2018-06-29T15:06:48.511Z,7.67
2018-06-29T15:09:17.022Z,8.03
2018-06-29T15:11:45.449Z,8.10
2018-06-29T15:14:13.924Z,7.57
2018-06-29T15:16:42.390Z,7.53
2018-06-29T15:19:10.882Z,8.70
2018-06-29T15:21:39.461Z,8.53
2018-06-29T15:24:08.178Z,9.30
2018-06-29T15:26:36.753Z,10.97
2018-06-29T15:29:05.441Z,10.83
2018-06-29T15:31:34.332Z,12.53
2018-06-29T15:34:02.992Z,12.97
2018-06-29T15:36:31.557Z,17.43
2018-06-29T15:39:00.110Z,17.53
2018-06-29T15:41:28.256Z,18.97
2018-06-29T15:43:56.845Z,18.50
2018-06-29T15:46:25.388Z,19.40
2018-06-29T15:48:53.892Z,19.33
2018-06-29T15:51:22.460Z,20.83
2018-06-29T15:53:50.904Z,21.03
2018-06-29T15:56:19.426Z,22.13
2018-06-29T15:58:47.950Z,21.37
2018-06-29T16:01:16.621Z,23.30
2018-06-29T16:03:45.150Z,22.60
2018-06-29T16:06:13.646Z,21.70
2018-06-29T16:08:42.243Z,19.57
2018-06-29T16:11:10.964Z,19.50
2018-06-29T16:13:39.591Z,19.60
2018-06-29T16:16:08.338Z,19.70
2018-06-29T16:18:36.633Z,20.27
2018-06-29T16:21:05.304Z,21.10
2018-06-29T16:23:33.927Z,21.00
2018-06-29T16:26:02.749Z,21.57
2018-06-29T16:28:31.608Z,25.23
2018-06-29T16:31:00.186Z,26.83
2018-06-29T16:33:28.804Z,26.07
2018-06-29T16:35:57.582Z,24.60
2018-06-29T16:38:28.247Z,25.37
2018-06-29T16:40:56.433Z,23.33
2018-06-29T16:43:25.264Z,23.63
2018-06-29T16:45:53.871Z,24.80
2018-06-29T16:48:22.717Z,24.03
2018-06-29T16:50:51.353Z,23.90
2018-06-29T16:53:19.926Z,26.20
2018-06-29T16:55:48.622Z,25.60
2018-06-29T16:58:17.437Z,26.37
2018-06-29T17:00:46.060Z,24.77
2018-06-29T17:03:14.728Z,24.33
2018-06-29T17:05:43.250Z,25.50
2018-06-29T17:08:11.836Z,26.23
2018-06-29T17:10:40.496Z,21.30
2018-06-29T17:13:09.009Z,21.43
2018-06-29T17:15:37.514Z,18.83
2018-06-29T17:18:06.160Z,20.00
2018-06-29T17:20:34.700Z,18.20
2018-06-29T17:23:03.305Z,16.33
2018-06-29T17:25:32.458Z,15.77
2018-06-29T17:28:01.040Z,15.30
2018-06-29T17:30:29.924Z,15.40
2018-06-29T17:32:58.704Z,14.47
2018-06-29T17:35:27.325Z,15.60
2018-06-29T17:37:56.052Z,16.70
2018-06-29T17:40:24.625Z,13.97
2018-06-29T17:42:53.324Z,13.80
2018-06-29T17:45:21.940Z,13.03
2018-06-29T17:47:50.670Z,12.93
2018-06-29T17:50:19.346Z,11.00
2018-06-29T17:52:48.324Z,11.03
2018-06-29T17:55:17.103Z,10.17
2018-06-29T17:57:45.841Z,10.43
2018-06-29T18:00:14.476Z,10.03
2018-06-29T18:02:43.154Z,9.53
2018-06-29T18:05:12.312Z,9.90
2018-06-29T18:07:41.255Z,10.37
2018-06-29T18:10:10.054Z,11.33
2018-06-29T18:12:38.676Z,19.00
2018-06-29T18:15:07.316Z,40.37
2018-06-29T18:17:36.504Z,68.47
2018-06-29T18:20:05.537Z,19.10
2018-06-29T18:22:34.314Z,10.40
2018-06-29T18:25:03.492Z,10.13
2018-06-29T18:27:32.318Z,10.23
2018-06-29T18:30:01.178Z,9.03
2018-06-29T18:32:29.885Z,9.70
2018-06-29T18:34:58.627Z,10.20
2018-06-29T18:37:27.205Z,22.13
2018-06-29T18:39:56.124Z,41.67
2018-06-29T18:42:25.175Z,17.30
2018-06-29T18:44:54.535Z,16.47
2018-06-29T18:47:23.205Z,9.47
2018-06-29T18:49:51.927Z,10.87
2018-06-29T18:52:20.908Z,10.00
2018-06-29T18:54:49.628Z,9.23
2018-06-29T18:57:18.408Z,10.03
2018-06-29T18:59:47.224Z,9.53
2018-06-29T19:02:15.967Z,9.50
2018-06-29T19:04:45.302Z,10.10
2018-06-29T19:07:14.921Z,10.13
2018-06-29T19:09:43.737Z,10.17
2018-06-29T19:12:12.656Z,11.00
2018-06-29T19:14:41.643Z,11.13
2018-06-29T19:17:11.097Z,10.70
2018-06-29T19:19:40.367Z,10.93
2018-06-29T19:22:09.816Z,11.90
2018-06-29T19:24:38.756Z,11.30
2018-06-29T19:27:07.748Z,10.97
2018-06-29T19:29:36.646Z,13.93
2018-06-29T19:32:05.663Z,16.77
2018-06-29T19:34:34.078Z,19.13
2018-06-29T19:37:02.901Z,15.97
2018-06-29T19:39:31.608Z,31.47
2018-06-29T19:42:00.357Z,32.07
2018-06-29T19:44:29.269Z,20.07
2018-06-29T19:46:57.872Z,13.30
2018-06-29T19:49:26.569Z,15.57
2018-06-29T19:51:55.462Z,14.20
2018-06-29T19:54:24.322Z,14.57
2018-06-29T19:56:53.103Z,13.50
2018-06-29T19:59:21.851Z,14.53
2018-06-29T20:01:50.603Z,28.13
2018-06-29T20:04:19.248Z,34.47
2018-06-29T20:06:48.162Z,14.07
2018-06-29T20:09:16.847Z,15.03
2018-06-29T20:11:45.651Z,15.07
2018-06-29T20:14:16.194Z,16.20
2018-06-29T20:16:45.483Z,14.67
2018-06-29T20:19:13.862Z,14.57
2018-06-29T20:21:42.734Z,14.10
2018-06-29T20:24:12.278Z,14.30
2018-06-29T20:26:41.003Z,14.37
2018-06-29T20:29:09.641Z,14.53
2018-06-29T20:31:38.465Z,14.63
2018-06-29T20:34:07.157Z,15.00
2018-06-29T20:36:35.944Z,14.80
2018-06-29T20:39:08.000Z,16.17
2018-06-29T20:41:36.723Z,15.87
2018-06-29T20:44:05.928Z,15.90
2018-06-29T20:46:34.671Z,15.63
2018-06-29T20:49:03.778Z,16.00
2018-06-29T20:51:32.665Z,15.67
2018-06-29T20:54:01.710Z,15.97
2018-06-29T20:56:30.485Z,16.23
2018-06-29T20:58:59.165Z,18.10
2018-06-29T21:01:27.787Z,16.87
2018-06-29T21:03:56.820Z,17.63
2018-06-29T21:06:25.542Z,17.63
2018-06-29T21:08:54.350Z,17.50
2018-06-29T21:11:23.061Z,17.40
2018-06-29T21:13:51.701Z,15.87
2018-06-29T21:16:20.458Z,17.00
2018-06-29T21:18:49.155Z,17.97
2018-06-29T21:21:17.853Z,18.40
2018-06-29T21:23:46.072Z,18.60
2018-06-29T21:26:15.190Z,18.43
2018-06-29T21:28:43.836Z,17.00
2018-06-29T21:31:12.428Z,18.07
2018-06-29T21:33:41.093Z,17.67
2018-06-29T21:36:09.942Z,18.53
2018-06-29T21:38:39.133Z,18.67
2018-06-29T21:41:07.701Z,19.47
2018-06-29T21:43:36.519Z,20.93
2018-06-29T21:46:05.194Z,19.57
2018-06-29T21:48:34.447Z,20.97
2018-06-29T21:51:03.781Z,20.63
2018-06-29T21:53:32.523Z,20.83
2018-06-29T21:56:01.138Z,21.33
2018-06-29T21:58:29.909Z,21.97
2018-06-29T22:00:58.559Z,22.00
2018-06-29T22:03:27.122Z,22.23
2018-06-29T22:05:56.028Z,22.23
2018-06-29T22:08:24.623Z,22.03
2018-06-29T22:10:53.297Z,22.83
2018-06-29T22:13:21.924Z,24.37
2018-06-29T22:15:50.423Z,22.97
2018-06-29T22:18:18.958Z,23.63
2018-06-29T22:20:47.525Z,23.77
2018-06-29T22:23:16.084Z,24.83
2018-06-29T22:25:44.629Z,27.30
2018-06-29T22:28:13.252Z,25.50
2018-06-29T22:30:41.902Z,26.00
2018-06-29T22:33:10.443Z,26.87
2018-06-29T22:35:39.240Z,28.57
2018-06-29T22:38:07.758Z,26.63
2018-06-29T22:40:36.402Z,29.60
2018-06-29T22:43:05.191Z,28.70
2018-06-29T22:45:33.861Z,28.87
2018-06-29T22:48:02.435Z,28.37
2018-06-29T22:50:30.962Z,29.20
2018-06-29T22:52:59.551Z,30.77
2018-06-29T22:55:28.082Z,31.97
2018-06-29T22:57:56.585Z,31.60
2018-06-29T23:00:25.222Z,33.73
2018-06-29T23:02:59.385Z,33.23
2018-06-29T23:05:27.972Z,33.53
2018-06-29T23:07:56.508Z,32.03
2018-06-29T23:10:24.991Z,33.77
2018-06-29T23:12:53.671Z,34.23
2018-06-29T23:15:22.243Z,35.07
2018-06-29T23:17:50.879Z,35.67
2018-06-29T23:20:19.428Z,36.60
2018-06-29T23:22:48.419Z,38.07
2018-06-29T23:25:16.887Z,37.33
2018-06-29T23:27:45.347Z,42.50
2018-06-29T23:30:13.798Z,40.87
2018-06-29T23:32:42.314Z,41.57
2018-06-29T23:35:10.849Z,43.60
2018-06-29T23:37:39.382Z,45.03
2018-06-29T23:40:08.072Z,45.07
2018-06-29T23:42:36.665Z,46.20
2018-06-29T23:45:05.715Z,45.90
2018-06-29T23:47:34.208Z,45.50
2018-06-29T23:50:02.724Z,46.63
2018-06-29T23:52:31.246Z,49.53
2018-06-29T23:54:59.705Z,48.63
2018-06-29T23:57:28.271Z,55.70
2018-06-29T23:59:57.028Z,54.60
